Hilltop, Minnesota
Current Conditions -  °F | °C
As of 12:35 PM on Sunday 21 Dec 2014 (Local Time) from KMIC Reporting Station
Haze Haze  
Wind Chill: 27°   Ceiling: 400
Heat Index: 35°   Visibility: 2mi
Dew Point: 33°   Wind: 10mph
Humidity: 92%   Direction: 150°SSE
Pressure: 29.77"   Gusts: NA
Location:  45.0516°N, 93.2549°W
Report Text: KMIC 211835Z 15009KT 2SM BR OVC004 02/01 A2977 RMK AO2 UPB10E12B31E35SNE10B12E31 P0001 T00170006
Loading
Personal Weather Stations






























Interactive Weather Map New forecast layout! Learn more

10-Day Weather Forecast

Advertisements
Track Severe Weather on mobile